Time;durP1;ratioP1;P1;durP2;ratioP2;P2;SDS_P1;SDS_P2;PMS_P1;PMS_P2;Temp;Humidity;BMP_temperature;BMP_pressure;BME280_temperature;BME280_humidity;BME280_pressure;Samples;Min_cycle;Max_cycle;Signal;HPM_P1;HPM_P2
2023/02/27 00:00:13;;;;;;;5.40;4.50;;;0.20;99.90;;;;;;5016138;28;20461;-65
2023/02/27 00:02:40;;;;;;;6.63;4.90;;;0.20;99.90;;;;;;5015144;28;20455;-65
2023/02/27 00:05:08;;;;;;;6.23;5.00;;;0.30;99.90;;;;;;5016313;28;20548;-65
2023/02/27 00:07:35;;;;;;;5.30;4.00;;;0.10;99.90;;;;;;5016251;28;20461;-65
2023/02/27 00:10:03;;;;;;;4.27;3.73;;;0.10;99.90;;;;;;5015702;28;20543;-65
2023/02/27 00:12:36;;;;;;;5.30;3.73;;;0.10;99.90;;;;;;5015982;28;20568;-65
2023/02/27 00:15:04;;;;;;;4.57;3.40;;;0.00;99.90;;;;;;5016022;28;20465;-64
2023/02/27 00:17:31;;;;;;;4.50;3.83;;;0.10;99.90;;;;;;5015810;28;20457;-65
2023/02/27 00:19:58;;;;;;;4.17;3.47;;;0.20;99.90;;;;;;5016033;28;20544;-64
2023/02/27 00:22:25;;;;;;;4.70;3.53;;;0.10;99.90;;;;;;5016028;28;20471;-64
2023/02/27 00:24:51;;;;;;;4.00;3.23;;;0.10;99.90;;;;;;5016103;28;20453;-68
2023/02/27 00:27:20;;;;;;;3.57;2.90;;;0.00;99.90;;;;;;5016241;28;20532;-67
2023/02/27 00:29:46;;;;;;;3.80;3.13;;;0.00;99.90;;;;;;5016208;28;20552;-67
2023/02/27 00:32:13;;;;;;;5.33;3.80;;;0.00;99.90;;;;;;5016119;28;20457;-67
2023/02/27 00:34:40;;;;;;;4.70;3.67;;;0.00;99.90;;;;;;5016036;28;20880;-67
2023/02/27 00:37:07;;;;;;;4.07;3.57;;;0.00;99.90;;;;;;5016996;28;20868;-67
2023/02/27 00:39:34;;;;;;;4.43;3.60;;;0.10;99.90;;;;;;5016550;28;20476;-65
2023/02/27 00:42:01;;;;;;;4.63;3.50;;;0.00;99.90;;;;;;5016088;28;20544;-65
2023/02/27 00:44:30;;;;;;;4.43;4.03;;;0.10;99.90;;;;;;5016591;28;20953;-65
2023/02/27 00:46:56;;;;;;;5.47;4.90;;;0.10;99.90;;;;;;5016740;28;20463;-64
2023/02/27 00:49:24;;;;;;;4.13;3.63;;;0.00;99.90;;;;;;5017445;28;20861;-65
2023/02/27 00:51:51;;;;;;;4.30;3.90;;;0.10;99.90;;;;;;5018406;28;20463;-65
2023/02/27 00:54:17;;;;;;;5.20;3.90;;;0.00;99.90;;;;;;5016432;28;20461;-65
2023/02/27 00:56:44;;;;;;;4.30;3.60;;;0.00;99.90;;;;;;5016070;28;20480;-65
2023/02/27 00:59:11;;;;;;;4.27;3.77;;;-0.10;99.90;;;;;;5016366;28;20759;-64
2023/02/27 01:01:39;;;;;;;4.40;3.80;;;-0.10;99.90;;;;;;5017961;28;20848;-65
2023/02/27 01:04:07;;;;;;;4.60;3.57;;;-0.20;99.90;;;;;;5016576;28;20453;-65
2023/02/27 01:06:33;;;;;;;8.13;3.73;;;-0.20;99.90;;;;;;5015772;28;20467;-64
2023/02/27 01:09:00;;;;;;;3.97;2.93;;;-0.10;99.90;;;;;;5015201;28;20556;-63
2023/02/27 01:11:27;;;;;;;3.77;2.80;;;0.00;99.90;;;;;;5014962;28;20611;-66
2023/02/27 01:13:54;;;;;;;5.50;4.40;;;-0.10;99.90;;;;;;5015170;28;20476;-63
2023/02/27 01:16:21;;;;;;;4.43;3.30;;;-0.20;99.90;;;;;;5015842;28;20491;-64
2023/02/27 01:18:49;;;;;;;7.30;2.87;;;-0.20;99.90;;;;;;5018293;28;20543;-64
2023/02/27 01:21:16;;;;;;;4.03;3.37;;;-0.10;99.90;;;;;;5015183;28;20471;-64
2023/02/27 01:23:43;;;;;;;5.00;2.93;;;-0.20;99.90;;;;;;5014873;28;20457;-64
2023/02/27 01:26:10;;;;;;;3.93;3.47;;;-0.20;99.90;;;;;;5014549;28;20553;-64
2023/02/27 01:28:37;;;;;;;4.90;3.53;;;-0.20;99.90;;;;;;5014855;28;20741;-65
2023/02/27 01:31:04;;;;;;;3.97;2.83;;;-0.20;99.90;;;;;;5014774;28;20461;-66
2023/02/27 01:33:31;;;;;;;3.43;2.90;;;-0.20;99.90;;;;;;5014851;28;20543;-65
2023/02/27 01:36:00;;;;;;;4.90;3.17;;;-0.20;99.90;;;;;;5015425;28;20724;-65
2023/02/27 01:38:27;;;;;;;4.43;3.23;;;-0.20;99.90;;;;;;5014699;28;20989;-65
2023/02/27 01:40:54;;;;;;;3.37;3.07;;;-0.20;99.90;;;;;;5014733;28;20460;-68
2023/02/27 01:43:22;;;;;;;4.93;3.60;;;-0.10;99.90;;;;;;5015641;28;20760;-68
2023/02/27 01:45:49;;;;;;;3.47;3.17;;;-0.10;99.90;;;;;;5015588;28;20568;-69
2023/02/27 01:48:19;;;;;;;5.10;2.93;;;-0.30;99.90;;;;;;5016020;28;20483;-69
2023/02/27 01:50:50;;;;;;;6.47;2.90;;;-0.40;99.90;;;;;;5015133;28;20460;-69
2023/02/27 01:53:23;;;;;;;4.43;3.27;;;-0.40;99.90;;;;;;5015045;28;20445;-69
2023/02/27 01:55:51;;;;;;;2.93;2.60;;;-0.40;99.90;;;;;;5015581;28;20465;-68
2023/02/27 01:58:18;;;;;;;4.00;2.80;;;-0.40;99.90;;;;;;5015187;28;20456;-69
2023/02/27 02:00:45;;;;;;;3.50;3.20;;;-0.40;99.90;;;;;;5015317;28;20461;-68
2023/02/27 02:03:22;;;;;;;3.50;3.20;;;-0.30;99.90;;;;;;5014576;28;20560;-69
2023/02/27 02:05:52;;;;;;;2.43;2.20;;;-0.30;99.90;;;;;;5015112;28;20532;-64
2023/02/27 02:08:22;;;;;;;4.07;3.20;;;-0.40;99.90;;;;;;5014123;28;20936;-63
2023/02/27 02:10:51;;;;;;;3.60;3.23;;;-0.40;99.90;;;;;;5014546;28;20446;-63
2023/02/27 02:13:20;;;;;;;5.50;2.90;;;-0.40;99.90;;;;;;5014324;28;20457;-63
2023/02/27 02:15:56;;;;;;;2.97;2.73;;;-0.40;99.90;;;;;;5015629;28;20563;-63
2023/02/27 02:18:33;;;;;;;5.43;3.73;;;-0.40;99.90;;;;;;5018240;28;20531;-63
2023/02/27 02:21:51;;;;;;;6.07;2.70;;;-0.40;99.90;;;;;;5017862;28;20540;-63
2023/02/27 02:25:13;;;;;;;3.27;2.63;;;-0.50;99.90;;;;;;5017526;28;20769;-63
2023/02/27 02:27:54;;;;;;;3.10;2.40;;;-0.50;99.90;;;;;;5017705;28;20762;-64
2023/02/27 02:30:59;;;;;;;4.17;3.00;;;-0.40;99.90;;;;;;5017585;28;20442;-64
2023/02/27 02:33:57;;;;;;;3.17;2.67;;;-0.50;99.90;;;;;;5017444;28;20455;-63
2023/02/27 02:37:12;;;;;;;3.23;2.90;;;-0.50;99.90;;;;;;5017667;28;20579;-63
2023/02/27 02:39:58;;;;;;;4.00;2.80;;;-0.50;99.90;;;;;;5017557;28;20429;-63
2023/02/27 02:42:29;;;;;;;3.50;3.20;;;-0.50;99.90;;;;;;5017509;28;20822;-63
2023/02/27 02:45:09;;;;;;;3.27;2.93;;;-0.60;99.90;;;;;;5017233;28;20481;-64
2023/02/27 02:47:46;;;;;;;3.33;2.53;;;-0.60;99.90;;;;;;5017342;28;20913;-63
2023/02/27 02:50:20;;;;;;;3.90;2.90;;;-0.50;99.90;;;;;;5017684;28;20443;-63
2023/02/27 02:52:56;;;;;;;4.07;2.90;;;-0.50;99.90;;;;;;5017871;28;20437;-63
2023/02/27 02:55:30;;;;;;;3.20;2.60;;;-0.60;99.90;;;;;;5017781;28;20552;-63
2023/02/27 02:58:03;;;;;;;3.33;2.37;;;-0.60;99.90;;;;;;5017383;28;20444;-64
2023/02/27 03:00:34;;;;;;;3.57;2.90;;;-0.50;99.90;;;;;;5017534;28;20556;-63
2023/02/27 03:03:10;;;;;;;2.90;2.60;;;-0.50;99.90;;;;;;5017249;28;20528;-63
2023/02/27 03:05:40;;;;;;;3.20;2.90;;;-0.60;99.90;;;;;;5017335;28;20492;-63
2023/02/27 03:08:12;;;;;;;2.87;2.43;;;-0.50;99.90;;;;;;5017279;28;20543;-63
2023/02/27 03:10:46;;;;;;;3.13;2.83;;;-0.50;99.90;;;;;;5017261;28;20441;-63
2023/02/27 03:13:20;;;;;;;2.70;2.50;;;-0.60;99.90;;;;;;5016809;28;20444;-63
2023/02/27 03:15:54;;;;;;;3.67;3.37;;;-0.50;99.90;;;;;;5016902;28;20554;-62
2023/02/27 03:18:25;;;;;;;4.03;3.17;;;-0.60;99.90;;;;;;5016993;28;20775;-63
2023/02/27 03:20:55;;;;;;;3.10;2.80;;;-0.70;99.90;;;;;;5016481;28;20471;-63
2023/02/27 03:23:28;;;;;;;5.93;3.50;;;-0.70;99.90;;;;;;5017186;28;20464;-63
2023/02/27 03:25:57;;;;;;;4.20;2.57;;;-0.60;99.90;;;;;;5017031;28;20456;-63
2023/02/27 03:28:28;;;;;;;4.47;2.97;;;-0.60;99.90;;;;;;5016046;28;20467;-63
2023/02/27 03:31:00;;;;;;;3.80;3.13;;;-0.60;99.90;;;;;;5016773;28;20785;-61
2023/02/27 03:33:34;;;;;;;4.03;2.90;;;-0.60;99.90;;;;;;5016394;28;20510;-63
2023/02/27 03:36:09;;;;;;;3.97;3.60;;;-0.60;99.90;;;;;;5016447;28;20469;-63
2023/02/27 03:38:41;;;;;;;4.90;3.10;;;-0.50;99.90;;;;;;5016293;28;20912;-61
2023/02/27 03:41:19;;;;;;;4.20;2.90;;;-0.60;99.90;;;;;;5016079;28;20441;-63
2023/02/27 03:43:54;;;;;;;5.10;3.23;;;-0.60;99.90;;;;;;5015892;28;20445;-61
2023/02/27 03:46:23;;;;;;;3.57;3.17;;;-0.70;99.90;;;;;;5015926;28;20476;-63
2023/02/27 03:48:50;;;;;;;3.67;3.37;;;-0.70;99.90;;;;;;5016345;28;20461;-63
2023/02/27 03:51:20;;;;;;;4.50;3.60;;;-0.70;99.90;;;;;;5016193;28;20764;-63
2023/02/27 03:53:50;;;;;;;4.30;3.63;;;-0.80;99.90;;;;;;5016230;28;20457;-63
2023/02/27 03:56:22;;;;;;;3.93;3.43;;;-0.80;99.90;;;;;;5016093;28;20484;-63
2023/02/27 03:58:50;;;;;;;4.60;3.53;;;-0.90;99.90;;;;;;5016141;28;20464;-61
2023/02/27 04:01:18;;;;;;;8.20;3.50;;;-0.90;99.90;;;;;;5016016;28;20552;-63
2023/02/27 04:03:53;;;;;;;5.07;3.53;;;-0.90;99.90;;;;;;5016053;28;20521;-63
2023/02/27 04:09:10;;;;;;;6.13;3.43;;;-0.70;99.90;;;;;;5016013;28;20453;-62
2023/02/27 04:11:56;;;;;;;6.83;3.60;;;-0.70;99.90;;;;;;5016349;28;20474;-62
2023/02/27 04:14:45;;;;;;;3.50;3.17;;;-0.80;99.90;;;;;;5016800;28;20441;-63
2023/02/27 04:17:20;;;;;;;5.00;3.50;;;-0.70;99.90;;;;;;5016605;28;20957;-62
2023/02/27 04:20:16;;;;;;;4.50;3.70;;;-0.80;99.90;;;;;;5016552;28;20944;-62
2023/02/27 04:22:47;;;;;;;6.07;3.30;;;-0.90;99.90;;;;;;5016052;28;20441;-63
2023/02/27 04:25:28;;;;;;;3.83;3.43;;;-0.90;99.90;;;;;;5015862;28;20442;-62
2023/02/27 04:28:01;;;;;;;3.30;3.00;;;-0.90;99.90;;;;;;5015482;28;20481;-63
2023/02/27 04:30:37;;;;;;;5.80;3.63;;;-0.90;99.90;;;;;;5015561;28;20547;-63
2023/02/27 04:33:09;;;;;;;5.70;3.63;;;-0.90;99.90;;;;;;5015611;28;20603;-63
2023/02/27 04:35:43;;;;;;;4.43;3.60;;;-0.90;99.90;;;;;;5015563;28;20531;-64
2023/02/27 04:38:20;;;;;;;4.37;3.97;;;-0.90;99.90;;;;;;5015177;28;20445;-63
2023/02/27 04:40:50;;;;;;;4.10;3.67;;;-0.90;99.90;;;;;;5015192;28;20775;-64
2023/02/27 04:43:21;;;;;;;5.03;3.83;;;-1.00;99.90;;;;;;5015471;28;20536;-62
2023/02/27 04:45:50;;;;;;;6.63;4.20;;;-1.00;99.90;;;;;;5014972;28;20491;-62
2023/02/27 04:48:22;;;;;;;5.00;3.23;;;-1.00;99.90;;;;;;5015018;28;20486;-64
2023/02/27 04:50:53;;;;;;;8.03;3.30;;;-1.00;99.90;;;;;;5014893;28;20441;-62
2023/02/27 04:53:24;;;;;;;8.33;5.40;;;-0.90;99.90;;;;;;5014963;28;20444;-63
2023/02/27 04:55:54;;;;;;;16.23;11.10;;;-0.90;99.90;;;;;;5015466;28;20453;-63
2023/02/27 04:58:25;;;;;;;5.87;4.20;;;-1.00;99.90;;;;;;5015233;28;20850;-62
2023/02/27 05:00:58;;;;;;;5.07;3.63;;;-0.90;99.90;;;;;;5015038;28;20453;-64
2023/02/27 05:03:29;;;;;;;5.40;3.47;;;-1.00;99.90;;;;;;5015101;28;20441;-63
2023/02/27 05:06:00;;;;;;;4.27;3.50;;;-1.00;99.90;;;;;;5014948;28;20455;-63
2023/02/27 05:08:33;;;;;;;3.60;3.13;;;-0.80;99.90;;;;;;5014792;28;20483;-63
2023/02/27 05:11:07;;;;;;;3.67;3.30;;;-0.70;99.90;;;;;;5014691;28;20517;-65
2023/02/27 05:13:40;;;;;;;5.67;3.73;;;-0.70;99.90;;;;;;5014983;28;20893;-63
2023/02/27 05:16:14;;;;;;;4.07;3.67;;;-0.80;99.90;;;;;;5014917;28;20469;-63
2023/02/27 05:18:41;;;;;;;4.33;3.93;;;-0.90;99.90;;;;;;5015124;28;20527;-63
2023/02/27 05:21:20;;;;;;;5.90;4.53;;;-0.90;99.90;;;;;;5031586;28;20798;-64
2023/02/27 05:23:55;;;;;;;5.70;4.20;;;-0.90;99.90;;;;;;5034608;28;20444;-62
2023/02/27 05:26:30;;;;;;;6.50;3.80;;;-0.90;99.90;;;;;;5034573;28;20813;-62
2023/02/27 05:29:05;;;;;;;4.67;3.87;;;-1.00;99.90;;;;;;5034606;28;20454;-63
2023/02/27 05:31:41;;;;;;;4.73;3.90;;;-1.20;99.90;;;;;;5034485;28;20527;-63
2023/02/27 05:34:12;;;;;;;5.90;4.60;;;-1.10;99.90;;;;;;5035052;28;20479;-63
2023/02/27 05:36:45;;;;;;;6.37;4.37;;;-1.10;99.90;;;;;;5034397;28;20468;-63
2023/02/27 05:39:15;;;;;;;40.90;5.93;;;-1.00;99.90;;;;;;5034487;28;20454;-62
2023/02/27 05:41:48;;;;;;;11.23;4.70;;;-1.20;99.90;;;;;;5034339;28;20456;-63
2023/02/27 05:44:20;;;;;;;6.77;5.03;;;-1.20;99.90;;;;;;5034512;28;20818;-63
2023/02/27 05:46:52;;;;;;;5.57;4.60;;;-1.20;99.90;;;;;;5033952;28;20527;-63
2023/02/27 05:49:23;;;;;;;7.93;4.87;;;-1.10;99.90;;;;;;5034008;28;20442;-64
2023/02/27 05:51:53;;;;;;;6.97;5.17;;;-1.10;99.90;;;;;;5037674;28;20451;-63
2023/02/27 05:54:25;;;;;;;5.60;5.07;;;-1.20;99.90;;;;;;5038119;28;20452;-63
2023/02/27 05:56:54;;;;;;;11.63;5.43;;;-1.20;99.90;;;;;;5038099;28;20503;-62
2023/02/27 05:59:30;;;;;;;6.07;4.27;;;-1.10;99.90;;;;;;5037695;28;20539;-64
2023/02/27 06:01:57;;;;;;;6.23;4.80;;;-1.10;99.90;;;;;;5038161;28;20766;-62
2023/02/27 06:04:24;;;;;;;15.23;6.80;;;-1.10;99.90;;;;;;5037683;28;20956;-64
2023/02/27 06:06:51;;;;;;;9.80;5.33;;;-1.10;99.90;;;;;;5038056;28;20787;-63
2023/02/27 06:09:19;;;;;;;6.53;5.17;;;-1.10;99.90;;;;;;5037786;28;20455;-63
2023/02/27 06:11:46;;;;;;;11.03;6.40;;;-1.00;99.90;;;;;;5038068;28;20455;-63
2023/02/27 06:14:13;;;;;;;10.97;4.70;;;-1.00;99.90;;;;;;5037644;28;20466;-63
2023/02/27 06:16:41;;;;;;;12.60;5.57;;;-1.00;99.90;;;;;;5037973;28;20480;-63
2023/02/27 06:19:08;;;;;;;5.73;5.13;;;-1.10;99.90;;;;;;5037676;28;20464;-63
2023/02/27 06:21:35;;;;;;;5.57;5.07;;;-1.00;99.90;;;;;;5038095;28;20496;-62
2023/02/27 06:24:02;;;;;;;8.00;4.90;;;-1.10;99.90;;;;;;5038002;28;20553;-61
2023/02/27 06:26:29;;;;;;;6.20;4.43;;;-1.10;99.90;;;;;;5038063;28;20487;-64
2023/02/27 06:28:55;;;;;;;5.40;4.40;;;-1.10;99.90;;;;;;5037999;28;20460;-63
2023/02/27 06:31:22;;;;;;;7.53;5.20;;;-1.10;99.90;;;;;;5037821;28;20470;-63
2023/02/27 06:33:50;;;;;;;7.10;4.70;;;-1.10;99.90;;;;;;5037882;28;20514;-63
2023/02/27 06:36:17;;;;;;;5.60;4.13;;;-1.10;99.90;;;;;;5037840;28;20460;-63
2023/02/27 06:38:44;;;;;;;6.10;5.37;;;-1.10;99.90;;;;;;5037367;28;20947;-63
2023/02/27 06:41:11;;;;;;;5.60;4.23;;;-1.10;99.90;;;;;;5037414;28;20466;-63
2023/02/27 06:43:38;;;;;;;7.77;4.77;;;-0.90;99.90;;;;;;5037802;28;20455;-62
2023/02/27 06:46:05;;;;;;;7.17;4.70;;;-0.90;99.90;;;;;;5037996;28;20562;-62
2023/02/27 06:48:32;;;;;;;11.30;7.33;;;-0.90;99.90;;;;;;5038307;28;20462;-63
2023/02/27 06:51:00;;;;;;;7.30;5.03;;;-0.90;99.90;;;;;;5038732;28;20547;-63
2023/02/27 06:53:27;;;;;;;6.17;4.97;;;-0.80;99.90;;;;;;5039396;28;20484;-64
2023/02/27 06:55:54;;;;;;;5.23;4.70;;;-0.80;99.90;;;;;;5040067;28;20777;-63
2023/02/27 06:58:23;;;;;;;7.10;4.50;;;-0.80;99.90;;;;;;5041057;28;20480;-63
2023/02/27 07:00:50;;;;;;;17.73;5.40;;;-0.70;99.90;;;;;;5040100;28;20490;-62
2023/02/27 07:03:17;;;;;;;6.63;4.93;;;-0.60;99.90;;;;;;5039393;28;20528;-62
2023/02/27 07:05:44;;;;;;;11.23;4.83;;;-0.60;99.90;;;;;;5041412;28;20536;-63
2023/02/27 07:08:16;;;;;;;8.47;5.20;;;-0.50;99.90;;;;;;5039648;28;20456;-64
2023/02/27 07:10:45;;;;;;;29.67;17.40;;;-0.50;99.90;;;;;;5039549;28;20452;-62
2023/02/27 07:13:12;;;;;;;9.97;6.17;;;-0.50;99.90;;;;;;5039828;28;20543;-63
2023/02/27 07:15:39;;;;;;;10.60;7.40;;;-0.50;99.90;;;;;;5040169;28;20452;-64
2023/02/27 07:18:06;;;;;;;9.60;5.93;;;-0.50;99.90;;;;;;5040504;28;20494;-62
2023/02/27 07:20:33;;;;;;;10.20;6.47;;;-0.40;99.90;;;;;;5040555;28;20745;-64
2023/02/27 07:23:00;;;;;;;6.63;5.30;;;-0.40;99.90;;;;;;5039508;28;20456;-63
2023/02/27 07:25:31;;;;;;;8.70;6.07;;;-0.30;99.90;;;;;;5040474;28;20456;-63
2023/02/27 07:27:57;;;;;;;7.47;4.17;;;-0.20;99.90;;;;;;5040375;28;20428;-65
2023/02/27 07:30:24;;;;;;;7.17;5.83;;;-0.20;99.90;;;;;;5040354;28;20566;-65
2023/02/27 07:32:51;;;;;;;6.57;4.13;;;-0.20;99.90;;;;;;5040257;28;20460;-64
2023/02/27 07:35:19;;;;;;;9.63;5.00;;;-0.20;99.90;;;;;;5039739;28;20455;-66
2023/02/27 07:37:47;;;;;;;7.67;4.70;;;-0.20;99.90;;;;;;5039938;28;20487;-64
2023/02/27 07:40:14;;;;;;;14.20;8.90;;;-0.10;99.90;;;;;;5037823;28;20467;-64
2023/02/27 07:42:42;;;;;;;24.17;14.60;;;-0.10;99.90;;;;;;5037156;28;20824;-64
2023/02/27 07:45:10;;;;;;;9.57;5.60;;;0.00;99.90;;;;;;5036090;28;20490;-63
2023/02/27 07:47:36;;;;;;;7.83;4.60;;;0.00;99.90;;;;;;5035943;28;20456;-63
2023/02/27 07:50:04;;;;;;;10.10;5.30;;;0.00;99.90;;;;;;5035646;28;20913;-63
2023/02/27 07:52:31;;;;;;;5.83;4.67;;;0.00;99.90;;;;;;5035504;28;20517;-64
2023/02/27 07:54:57;;;;;;;8.03;5.67;;;0.10;99.90;;;;;;5035861;28;20528;-63
2023/02/27 07:57:24;;;;;;;19.50;7.30;;;0.20;99.90;;;;;;5035815;28;20778;-65
2023/02/27 07:59:52;;;;;;;8.83;5.67;;;0.30;99.90;;;;;;5035730;28;20456;-65
2023/02/27 08:02:19;;;;;;;10.13;5.73;;;0.30;99.90;;;;;;5035678;28;20466;-62
2023/02/27 08:04:46;;;;;;;8.37;5.80;;;0.40;99.90;;;;;;5035607;28;20456;-65
2023/02/27 08:07:13;;;;;;;12.50;5.33;;;0.40;99.90;;;;;;5035374;28;20869;-64
2023/02/27 08:09:40;;;;;;;5.63;4.27;;;0.50;99.90;;;;;;5035289;28;20456;-64
2023/02/27 08:12:06;;;;;;;6.80;5.03;;;0.70;99.90;;;;;;5035445;28;20460;-64
2023/02/27 08:14:33;;;;;;;9.40;5.43;;;0.60;99.90;;;;;;5035005;28;20456;-64
2023/02/27 08:17:02;;;;;;;7.20;4.90;;;0.70;99.90;;;;;;5035273;28;20995;-65
2023/02/27 08:19:28;;;;;;;6.83;4.70;;;0.80;99.90;;;;;;5035133;28;20464;-63
2023/02/27 08:21:55;;;;;;;5.17;4.67;;;0.80;99.90;;;;;;5035703;28;20459;-65
2023/02/27 08:24:22;;;;;;;6.87;4.77;;;0.80;99.90;;;;;;5035192;28;20550;-65
2023/02/27 08:26:49;;;;;;;9.13;5.20;;;0.90;99.90;;;;;;5035317;28;20956;-65
2023/02/27 08:29:16;;;;;;;13.83;7.63;;;0.90;99.90;;;;;;5035344;28;20471;-65
2023/02/27 08:31:43;;;;;;;11.20;6.10;;;1.00;99.90;;;;;;5035154;28;20460;-65
2023/02/27 08:34:11;;;;;;;11.43;6.10;;;1.00;99.90;;;;;;5034976;28;20462;-65
2023/02/27 08:36:39;;;;;;;15.03;7.60;;;0.90;99.90;;;;;;5028968;28;20467;-64
2023/02/27 08:39:06;;;;;;;8.73;6.27;;;0.90;99.90;;;;;;5015428;28;20529;-64
2023/02/27 08:41:34;;;;;;;9.70;7.30;;;1.00;99.90;;;;;;5015455;28;20895;-64
2023/02/27 08:44:01;;;;;;;8.80;4.70;;;1.00;99.90;;;;;;5015868;28;20805;-62
2023/02/27 08:46:28;;;;;;;10.10;6.07;;;1.00;99.90;;;;;;5017009;28;20558;-65
2023/02/27 08:48:55;;;;;;;17.63;7.80;;;1.20;99.90;;;;;;5035346;28;20456;-65
2023/02/27 08:51:23;;;;;;;10.73;5.93;;;1.20;99.90;;;;;;5035216;28;20459;-67
2023/02/27 08:53:50;;;;;;;8.53;5.80;;;1.30;99.90;;;;;;5034947;28;20492;-65
2023/02/27 08:56:17;;;;;;;11.43;7.93;;;1.50;99.90;;;;;;5035129;28;20466;-64
2023/02/27 08:58:43;;;;;;;15.20;8.63;;;1.50;99.90;;;;;;5015452;28;21036;-64
2023/02/27 09:01:10;;;;;;;16.10;8.80;;;1.60;99.90;;;;;;5015223;28;20467;-65
2023/02/27 09:03:37;;;;;;;23.53;13.00;;;1.70;99.90;;;;;;5015259;28;20547;-65
2023/02/27 09:06:04;;;;;;;12.20;8.03;;;1.70;99.90;;;;;;5015414;28;20547;-65
2023/02/27 09:08:32;;;;;;;41.90;19.97;;;1.90;99.90;;;;;;5016342;28;20599;-65
2023/02/27 09:10:59;;;;;;;12.40;7.43;;;2.00;99.90;;;;;;5015663;28;20543;-65
2023/02/27 09:13:27;;;;;;;14.17;8.90;;;2.10;99.90;;;;;;5015723;28;20552;-65
2023/02/27 09:15:54;;;;;;;8.47;5.50;;;2.00;99.90;;;;;;5015273;28;20919;-65
2023/02/27 09:18:21;;;;;;;8.27;6.43;;;1.90;99.90;;;;;;5015678;28;20484;-66
2023/02/27 09:20:49;;;;;;;10.60;7.17;;;1.90;99.90;;;;;;5015393;28;20514;-65
2023/02/27 09:23:17;;;;;;;8.83;5.77;;;1.90;99.90;;;;;;5015601;28;20504;-64
2023/02/27 09:25:46;;;;;;;7.40;5.47;;;2.00;99.90;;;;;;5016971;28;20457;-64
2023/02/27 09:28:13;;;;;;;20.57;9.50;;;2.10;99.90;;;;;;5018801;28;20870;-65
2023/02/27 09:30:40;;;;;;;13.00;8.80;;;2.30;99.90;;;;;;5019102;28;21009;-65
2023/02/27 09:33:07;;;;;;;11.57;5.53;;;2.50;99.90;;;;;;5019296;28;20475;-65
2023/02/27 09:35:34;;;;;;;6.37;4.63;;;2.60;99.90;;;;;;5019651;28;20471;-64
2023/02/27 09:38:00;;;;;;;10.80;5.80;;;2.80;99.90;;;;;;5020045;28;20523;-65
2023/02/27 09:40:30;;;;;;;9.30;5.40;;;3.00;99.90;;;;;;5020234;28;20748;-66
2023/02/27 09:43:02;;;;;;;9.53;6.20;;;3.00;99.90;;;;;;5019588;28;20468;-65
2023/02/27 09:45:32;;;;;;;10.70;6.17;;;3.00;99.90;;;;;;5018932;28;20566;-65
2023/02/27 09:48:05;;;;;;;7.40;5.77;;;3.10;99.90;;;;;;5019357;28;20468;-65
2023/02/27 09:50:39;;;;;;;10.70;5.47;;;3.20;99.90;;;;;;5018988;28;20494;-65
2023/02/27 09:53:10;;;;;;;9.50;5.60;;;3.40;99.90;;;;;;5019605;28;20441;-64
2023/02/27 09:55:40;;;;;;;8.57;5.27;;;3.40;99.90;;;;;;5018696;28;20913;-64
2023/02/27 09:58:23;;;;;;;10.00;5.73;;;3.30;99.90;;;;;;5025556;28;20564;-69
2023/02/27 10:00:57;;;;;;;13.53;6.17;;;3.30;99.90;;;;;;5018621;28;20455;-69
2023/02/27 10:03:38;;;;;;;7.20;5.30;;;3.30;99.90;;;;;;5018561;28;20520;-68
2023/02/27 10:06:19;;;;;;;6.93;4.70;;;3.40;99.90;;;;;;5018517;28;20449;-68
2023/02/27 10:08:54;;;;;;;7.00;4.30;;;3.30;99.90;;;;;;5018712;28;20455;-68
2023/02/27 10:11:30;;;;;;;8.57;4.33;;;3.40;99.90;;;;;;5018544;28;20445;-68
2023/02/27 10:14:05;;;;;;;8.10;5.00;;;3.50;99.90;;;;;;5031601;28;20498;-69
2023/02/27 10:16:33;;;;;;;6.13;5.10;;;3.60;99.90;;;;;;5027612;28;20464;-69
2023/02/27 10:19:02;;;;;;;7.13;4.90;;;3.70;99.90;;;;;;5018386;28;20226;-69
2023/02/27 10:21:33;;;;;;;6.60;5.90;;;3.80;99.90;;;;;;5018507;28;20552;-69
2023/02/27 10:24:11;;;;;;;6.23;4.33;;;3.90;99.90;;;;;;5018332;28;20772;-68
2023/02/27 10:26:41;;;;;;;5.33;4.27;;;4.00;99.90;;;;;;5017781;28;20898;-70
2023/02/27 10:29:19;;;;;;;4.93;3.40;;;4.30;99.90;;;;;;5017925;28;20441;-69
2023/02/27 10:31:50;;;;;;;5.00;4.07;;;4.40;99.90;;;;;;5018117;28;20451;-69
2023/02/27 10:34:17;;;;;;;7.07;3.50;;;4.60;99.90;;;;;;5017655;28;20445;-68
2023/02/27 10:36:46;;;;;;;4.27;3.83;;;4.70;99.90;;;;;;5017407;28;20552;-69
2023/02/27 10:39:16;;;;;;;8.03;3.50;;;4.80;99.90;;;;;;5017493;28;21052;-69
2023/02/27 10:41:45;;;;;;;6.70;3.60;;;4.80;99.90;;;;;;5018180;28;20453;-68
2023/02/27 10:44:17;;;;;;;4.90;3.23;;;4.90;99.90;;;;;;5017736;28;20465;-68
2023/02/27 10:46:44;;;;;;;6.60;4.13;;;5.00;99.90;;;;;;5017471;28;20900;-69
2023/02/27 10:49:16;;;;;;;5.97;3.00;;;5.10;99.90;;;;;;5017806;28;20445;-68
2023/02/27 10:51:45;;;;;;;4.87;3.30;;;5.20;99.90;;;;;;5017666;28;20438;-68
2023/02/27 10:54:20;;;;;;;5.43;2.70;;;5.40;99.90;;;;;;5017251;28;20465;-68
2023/02/27 10:56:51;;;;;;;3.07;2.23;;;5.30;99.90;;;;;;5017502;28;20437;-69
2023/02/27 10:59:22;;;;;;;5.50;2.37;;;5.40;99.90;;;;;;5017888;28;20477;-69
2023/02/27 11:01:52;;;;;;;4.83;2.37;;;5.50;99.90;;;;;;5017537;28;20445;-69
2023/02/27 11:04:29;;;;;;;5.33;2.60;;;5.70;99.90;;;;;;5020251;28;20572;-68
2023/02/27 11:06:56;;;;;;;5.10;3.00;;;5.80;99.90;;;;;;5017238;28;20441;-68
2023/02/27 11:09:26;;;;;;;4.37;3.70;;;5.90;99.90;;;;;;5016635;28;20464;-68
2023/02/27 11:11:53;;;;;;;3.23;2.23;;;6.10;99.90;;;;;;5016900;28;20493;-69
2023/02/27 11:14:28;;;;;;;5.03;2.37;;;6.20;99.90;;;;;;5016866;28;20940;-68
2023/02/27 11:16:57;;;;;;;10.23;2.83;;;6.20;99.90;;;;;;5017259;28;20848;-68
2023/02/27 11:19:26;;;;;;;3.47;2.30;;;6.20;99.90;;;;;;5017023;28;20576;-68
2023/02/27 11:22:04;;;;;;;4.97;2.73;;;6.20;99.90;;;;;;5017002;28;20456;-69
2023/02/27 11:24:31;;;;;;;6.03;2.90;;;6.40;99.90;;;;;;5016756;28;20456;-70
2023/02/27 11:27:02;;;;;;;3.07;2.30;;;6.30;99.90;;;;;;5016800;28;20457;-69
2023/02/27 11:29:31;;;;;;;3.10;2.57;;;6.50;99.90;;;;;;5016816;28;20481;-68
2023/02/27 11:32:02;;;;;;;3.20;2.90;;;6.50;99.90;;;;;;5016546;28;20551;-69
2023/02/27 11:34:31;;;;;;;4.07;2.60;;;6.50;99.90;;;;;;5016772;28;20484;-69
2023/02/27 11:37:01;;;;;;;2.20;2.00;;;6.40;99.90;;;;;;5016626;28;20543;-68
2023/02/27 11:39:36;;;;;;;5.30;2.07;;;6.30;99.90;;;;;;5016731;28;20568;-68
2023/02/27 11:42:14;;;;;;;5.60;3.13;;;6.10;99.90;;;;;;5017121;28;20436;-69
2023/02/27 11:44:52;;;;;;;6.03;2.30;;;6.20;99.90;;;;;;5016148;28;20485;-69
2023/02/27 11:47:23;;;;;;;2.83;1.90;;;6.30;99.90;;;;;;5016126;28;21012;-69
2023/02/27 11:50:13;;;;;;;4.47;2.43;;;6.40;99.90;;;;;;5015854;28;20916;-69
2023/02/27 11:52:48;;;;;;;4.10;1.80;;;6.30;99.90;;;;;;5016387;28;20441;-69
2023/02/27 11:55:19;;;;;;;3.97;2.10;;;6.20;99.90;;;;;;5016117;28;20467;-68
2023/02/27 11:57:49;;;;;;;4.27;1.83;;;6.20;99.90;;;;;;5015888;28;20916;-69
2023/02/27 12:00:21;;;;;;;2.33;2.07;;;6.20;99.90;;;;;;5015858;28;20450;-69
2023/02/27 12:02:56;;;;;;;2.43;2.20;;;6.00;99.90;;;;;;5015848;28;20449;-69
2023/02/27 12:05:28;;;;;;;2.67;2.47;;;5.80;99.90;;;;;;5016201;28;20447;-69
2023/02/27 12:08:00;;;;;;;2.67;1.90;;;5.80;99.90;;;;;;5015749;28;20446;-69
2023/02/27 12:10:31;;;;;;;4.60;1.77;;;5.80;99.90;;;;;;5015862;28;20488;-68
2023/02/27 12:13:03;;;;;;;2.33;1.70;;;6.00;99.90;;;;;;5015947;28;20463;-68
2023/02/27 12:15:37;;;;;;;2.53;1.87;;;6.30;99.90;;;;;;5016078;28;20449;-68
2023/02/27 12:18:12;;;;;;;2.10;1.70;;;6.60;99.90;;;;;;5015897;28;20451;-69
2023/02/27 12:20:45;;;;;;;3.93;1.80;;;7.00;99.90;;;;;;5015841;28;20445;-68
2023/02/27 12:23:19;;;;;;;4.97;1.60;;;7.60;99.90;;;;;;5015730;28;20528;-69
2023/02/27 12:25:51;;;;;;;3.97;2.13;;;8.40;99.90;;;;;;5015552;28;20450;-68
2023/02/27 12:28:29;;;;;;;1.70;1.20;;;9.80;99.40;;;;;;5015555;28;20524;-69
2023/02/27 12:31:19;;;;;;;2.07;1.23;;;11.50;72.60;;;;;;5015935;28;20452;-69
2023/02/27 12:33:53;;;;;;;1.83;1.40;;;13.00;56.10;;;;;;5015379;28;20438;-69
2023/02/27 12:36:20;;;;;;;2.37;1.20;;;14.10;42.30;;;;;;5015746;28;20445;-69
2023/02/27 12:38:47;;;;;;;2.87;2.43;;;14.70;37.00;;;;;;5015624;28;20579;-69
2023/02/27 12:41:35;;;;;;;1.83;1.20;;;15.50;34.20;;;;;;5015661;28;20457;-69
2023/02/27 12:44:16;;;;;;;3.40;1.17;;;16.20;32.70;;;;;;5016261;28;20441;-70
2023/02/27 12:46:50;;;;;;;1.13;0.77;;;16.60;26.00;;;;;;4976283;28;20439;-69
2023/02/27 12:49:28;;;;;;;2.70;0.97;;;17.00;26.60;;;;;;4976018;28;20534;-69
2023/02/27 12:52:05;;;;;;;1.93;1.00;;;16.90;22.70;;;;;;4975953;28;20438;-67
2023/02/27 12:54:46;;;;;;;1.50;1.10;;;16.90;22.10;;;;;;4976426;28;20442;-69
2023/02/27 12:57:29;;;;;;;1.60;1.20;;;17.30;22.00;;;;;;4976862;28;20867;-69
2023/02/27 13:00:06;;;;;;;1.30;1.00;;;16.90;19.20;;;;;;4975149;28;20477;-68
2023/02/27 13:02:49;;;;;;;2.33;1.13;;;16.00;18.40;;;;;;4976103;28;20450;-68
2023/02/27 13:05:32;;;;;;;1.60;1.00;;;14.70;18.60;;;;;;4975791;28;20447;-69
2023/02/27 13:08:09;;;;;;;2.23;1.07;;;13.40;20.40;;;;;;4976062;28;20447;-69
2023/02/27 13:10:43;;;;;;;3.23;1.20;;;12.60;22.50;;;;;;4976399;28;20825;-69
2023/02/27 13:13:18;;;;;;;2.40;1.80;;;11.60;23.10;;;;;;4976244;28;20571;-69